createdAt,value
2018-12-27T10:14:51.009Z,101434.16
2018-12-27T10:19:53.189Z,101419.51
2018-12-27T10:24:55.225Z,101420.22
2018-12-27T10:29:57.361Z,101409.41
2018-12-27T10:34:59.343Z,101396.52
2018-12-27T10:40:01.371Z,101390.33
2018-12-27T10:45:03.991Z,101379.83
2018-12-27T10:50:07.191Z,101375.89
2018-12-27T10:55:09.211Z,101367.66
2018-12-27T11:00:11.499Z,101353.62
2018-12-27T11:05:13.524Z,101341.63
2018-12-27T11:10:15.496Z,101341.48
2018-12-27T11:15:17.437Z,101337.11
2018-12-27T11:20:19.334Z,101331.41
2018-12-27T11:25:21.266Z,101328.59
2018-12-27T11:30:23.199Z,101320.48
2018-12-27T11:35:25.106Z,101312.22
2018-12-27T11:40:27.084Z,101302.28
2018-12-27T11:45:29.028Z,101293.13
2018-12-27T11:50:31.642Z,101295.48
2018-12-27T11:55:33.550Z,101290.70
2018-12-27T12:00:35.510Z,101287.09
2018-12-27T12:05:37.428Z,101281.69
2018-12-27T12:10:39.486Z,101275.31
2018-12-27T12:15:41.580Z,101269.80
2018-12-27T12:20:43.533Z,101279.68
2018-12-27T12:25:45.492Z,101268.70
2018-12-27T12:30:47.521Z,101254.33
2018-12-27T12:35:49.531Z,101259.69
2018-12-27T12:40:51.472Z,101261.73
2018-12-27T12:45:53.406Z,101263.13
2018-12-27T12:50:55.703Z,101260.26
2018-12-27T12:55:57.621Z,101257.47
2018-12-27T13:00:59.886Z,101254.11
2018-12-27T13:06:01.896Z,101255.69
2018-12-27T13:11:03.860Z,101255.10
2018-12-27T13:16:05.791Z,101256.58
2018-12-27T13:21:09.271Z,101251.48
2018-12-27T13:26:11.316Z,101243.69
2018-12-27T13:31:13.259Z,101260.52
2018-12-27T13:36:15.298Z,101261.73
2018-12-27T13:41:17.200Z,101272.82
2018-12-27T13:46:19.169Z,101265.16
2018-12-27T13:51:21.510Z,101263.73
2018-12-27T13:56:23.489Z,101260.72
2018-12-27T14:01:25.550Z,101266.64
2018-12-27T14:06:32.704Z,101254.02
2018-12-27T14:11:31.609Z,101267.11
2018-12-27T14:16:33.569Z,101268.45
2018-12-27T14:21:35.526Z,101267.25
2018-12-27T14:26:37.459Z,101278.16
2018-12-27T14:31:39.518Z,101281.48
2018-12-27T14:36:41.486Z,101288.28
2018-12-27T14:41:43.449Z,101296.91
2018-12-27T14:46:45.512Z,101304.23
2018-12-27T14:51:47.539Z,101287.67
2018-12-27T14:56:49.580Z,101285.20
2018-12-27T15:01:51.664Z,101277.66
2018-12-27T15:06:53.609Z,101267.02
2018-12-27T15:11:55.522Z,101269.10
2018-12-27T15:16:57.513Z,101275.51
2018-12-27T15:21:59.466Z,101265.72
2018-12-27T15:27:01.418Z,101270.08
2018-12-27T15:32:03.464Z,101278.41
2018-12-27T15:37:05.405Z,101278.77
2018-12-27T15:42:07.359Z,101277.30
2018-12-27T15:47:09.318Z,101271.34
2018-12-27T15:52:11.349Z,101269.30
2018-12-27T15:57:13.711Z,101275.97
2018-12-27T16:02:15.669Z,101271.11
2018-12-27T16:07:17.594Z,101267.56
2018-12-27T16:12:19.676Z,101262.55
2018-12-27T16:17:22.283Z,101263.30
2018-12-27T16:22:24.254Z,101280.20
2018-12-27T16:27:26.215Z,101277.22
2018-12-27T16:32:28.153Z,101282.27
2018-12-27T16:37:30.190Z,101283.42
2018-12-27T16:42:32.262Z,101288.84
2018-12-27T16:47:34.172Z,101284.70
2018-12-27T16:52:36.074Z,101284.98
2018-12-27T16:57:38.282Z,101285.69
2018-12-27T17:02:40.603Z,101284.41
2018-12-27T17:07:42.742Z,101281.06
2018-12-27T17:12:45.243Z,101281.45
2018-12-27T17:17:47.555Z,101280.84
2018-12-27T17:22:49.609Z,101278.81
2018-12-27T17:27:51.804Z,101269.09
2018-12-27T17:32:54.880Z,101270.41
2018-12-27T17:37:56.785Z,101269.14
2018-12-27T17:42:59.230Z,101263.77
2018-12-27T17:48:01.151Z,101269.99
2018-12-27T17:53:03.115Z,101265.26
2018-12-27T17:58:05.148Z,101270.49
2018-12-27T18:03:07.050Z,101262.30
2018-12-27T18:08:09.008Z,101276.94
2018-12-27T18:13:11.159Z,101270.10
2018-12-27T18:18:13.132Z,101267.64
2018-12-27T18:23:15.184Z,101261.80
2018-12-27T18:28:17.162Z,101254.11
2018-12-27T18:33:19.059Z,101257.31
2018-12-27T18:38:21.129Z,101260.47
2018-12-27T18:43:23.048Z,101259.72
2018-12-27T18:48:24.970Z,101250.86
2018-12-27T18:53:27.454Z,101251.39
2018-12-27T18:58:29.399Z,101244.86
2018-12-27T19:03:31.368Z,101236.02
2018-12-27T19:08:33.330Z,101236.33
2018-12-27T19:13:35.257Z,101247.05
2018-12-27T19:18:43.539Z,101237.94
2018-12-27T19:23:45.632Z,101242.06
2018-12-27T19:28:47.668Z,101243.98
2018-12-27T19:33:49.616Z,101235.45
2018-12-27T19:38:51.527Z,101236.14
2018-12-27T19:43:53.471Z,101235.78
2018-12-27T19:48:55.464Z,101237.20
2018-12-27T19:53:57.495Z,101239.55
2018-12-27T19:58:59.462Z,101234.23
2018-12-27T20:04:01.476Z,101231.86
2018-12-27T20:09:05.748Z,101234.18
2018-12-27T20:14:07.734Z,101232.80
2018-12-27T20:19:11.086Z,101230.91
2018-12-27T20:24:14.040Z,101228.39
2018-12-27T20:29:17.585Z,101220.47
2018-12-27T20:34:19.539Z,101228.02
2018-12-27T20:39:21.452Z,101225.23
2018-12-27T20:44:23.386Z,101229.32
2018-12-27T20:49:25.954Z,101239.86
2018-12-27T20:54:28.589Z,101232.92
2018-12-27T20:59:31.485Z,101237.96
2018-12-27T21:04:34.350Z,101230.92
2018-12-27T21:09:36.730Z,101239.12
2018-12-27T21:14:39.139Z,101239.58
2018-12-27T21:19:43.950Z,101237.88
2018-12-27T21:24:45.894Z,101241.70
2018-12-27T21:29:47.793Z,101234.94
2018-12-27T21:34:50.310Z,101248.45
2018-12-27T21:39:52.608Z,101246.00
2018-12-27T21:44:55.173Z,101252.36
2018-12-27T21:49:57.097Z,101256.83
2018-12-27T21:54:59.212Z,101253.29
2018-12-27T22:00:08.958Z,101243.71
2018-12-27T22:05:14.997Z,101240.28
2018-12-27T22:10:30.266Z,101242.38
2018-12-27T22:15:49.682Z,101237.34
2018-12-27T22:21:09.986Z,101234.45
2018-12-27T22:26:42.219Z,101234.45
2018-12-27T22:31:50.940Z,101237.64
2018-12-27T22:36:54.224Z,101229.02
2018-12-27T22:41:57.154Z,101242.23
2018-12-27T22:46:59.504Z,101239.24
2018-12-27T22:52:01.816Z,101239.24
2018-12-27T22:57:03.723Z,101239.29
2018-12-27T23:02:10.654Z,101234.95
2018-12-27T23:07:13.554Z,101234.95
2018-12-27T23:12:15.468Z,101238.84
2018-12-27T23:17:18.689Z,101218.92
2018-12-27T23:22:21.221Z,101218.92
2018-12-27T23:27:24.406Z,101219.88
2018-12-27T23:32:27.438Z,101214.95
2018-12-27T23:37:29.362Z,101213.45
2018-12-27T23:42:31.455Z,101201.36
2018-12-27T23:47:34.722Z,101197.53
2018-12-27T23:52:36.659Z,101184.39
2018-12-27T23:57:38.851Z,101184.36
